createdAt,value
2018-02-24T00:00:05.031Z,1022.82
2018-02-24T00:05:02.750Z,1022.89
2018-02-24T00:10:03.292Z,1022.76
2018-02-24T00:15:02.751Z,1022.85
2018-02-24T00:20:03.268Z,1022.92
2018-02-24T00:25:03.670Z,1022.87
2018-02-24T00:30:03.135Z,1022.85
2018-02-24T00:35:03.585Z,1022.89
2018-02-24T00:40:03.132Z,1022.81
2018-02-24T00:45:03.637Z,1022.76
2018-02-24T00:50:03.081Z,1022.83
2018-02-24T00:55:03.488Z,1022.87
2018-02-24T01:00:02.941Z,1022.88
2018-02-24T01:05:03.158Z,1022.82
2018-02-24T01:10:03.617Z,1022.74
2018-02-24T01:15:03.103Z,1022.85
2018-02-24T01:20:03.634Z,1022.84
2018-02-24T01:25:03.086Z,1022.83
2018-02-24T01:30:03.579Z,1022.86
2018-02-24T01:35:03.078Z,1022.81
2018-02-24T01:40:03.617Z,1022.83
2018-02-24T01:45:03.017Z,1022.91
2018-02-24T01:50:03.489Z,1022.84
2018-02-24T01:55:02.840Z,1022.88
2018-02-24T02:00:03.210Z,1022.93
2018-02-24T02:05:03.611Z,1022.86
2018-02-24T02:10:03.104Z,1022.83
2018-02-24T02:15:03.574Z,1022.88
2018-02-24T02:20:03.247Z,1022.93
2018-02-24T02:25:03.660Z,1022.98
2018-02-24T02:30:03.180Z,1022.91
2018-02-24T02:35:03.644Z,1022.99
2018-02-24T02:40:03.103Z,1023.07
2018-02-24T02:45:03.579Z,1023
2018-02-24T02:50:03.018Z,1022.91
2018-02-24T02:55:03.508Z,1022.99
2018-02-24T03:00:02.878Z,1023.05
2018-02-24T03:05:03.377Z,1023.1
2018-02-24T03:10:02.917Z,1023.15
2018-02-24T03:15:03.423Z,1023.18
2018-02-24T03:20:02.839Z,1023.17
2018-02-24T03:25:03.260Z,1023.22
2018-02-24T03:30:02.805Z,1023.25
2018-02-24T03:35:03.310Z,1023.35
2018-02-24T03:40:02.854Z,1023.43
2018-02-24T03:45:03.233Z,1023.42
2018-02-24T03:50:03.622Z,1023.51
2018-02-24T03:55:03.103Z,1023.49
2018-02-24T04:00:03.551Z,1023.43
2018-02-24T04:05:03.038Z,1023.43
2018-02-24T04:10:03.573Z,1023.49
2018-02-24T04:15:02.976Z,1023.52
2018-02-24T04:20:03.424Z,1023.48
2018-02-24T04:25:02.901Z,1023.59
2018-02-24T04:30:03.380Z,1023.64
2018-02-24T04:35:02.782Z,1023.78
2018-02-24T04:40:03.404Z,1023.83
2018-02-24T04:45:02.782Z,1023.74
2018-02-24T04:50:03.234Z,1023.76
2018-02-24T04:55:03.677Z,1023.85
2018-02-24T05:00:03.193Z,1023.88
2018-02-24T05:05:03.587Z,1023.9
2018-02-24T05:10:03.054Z,1023.98
2018-02-24T05:15:03.481Z,1023.92
2018-02-24T05:20:02.892Z,1023.93
2018-02-24T05:25:03.375Z,1023.92
2018-02-24T05:30:03.367Z,1023.91
2018-02-24T05:35:02.947Z,1024
2018-02-24T05:40:03.438Z,1024.09
2018-02-24T05:45:02.853Z,1024.11
2018-02-24T05:50:03.277Z,1024.1
2018-02-24T05:55:02.747Z,1024.1
2018-02-24T06:00:03.247Z,1024.22
2018-02-24T06:05:03.689Z,1024.23
2018-02-24T06:10:03.260Z,1024.31
2018-02-24T06:15:03.667Z,1024.37
2018-02-24T06:20:03.137Z,1024.42
2018-02-24T06:25:03.530Z,1024.52
2018-02-24T06:30:02.922Z,1024.61
2018-02-24T06:35:03.483Z,1024.51
2018-02-24T06:40:02.954Z,1024.55
2018-02-24T06:45:03.429Z,1024.64
2018-02-24T06:50:02.798Z,1024.73
2018-02-24T06:55:03.213Z,1024.77
2018-02-24T07:00:03.698Z,1024.82
2018-02-24T07:05:03.103Z,1024.86
2018-02-24T07:10:03.620Z,1024.92
2018-02-24T07:15:03.022Z,1024.93
2018-02-24T07:20:03.525Z,1025
2018-02-24T07:25:03.035Z,1025.01
2018-02-24T07:30:03.527Z,1025.04
2018-02-24T07:35:02.935Z,1025.12
2018-02-24T07:40:03.386Z,1025.08
2018-02-24T07:45:02.884Z,1025.09
2018-02-24T07:50:03.313Z,1025.17
2018-02-24T07:55:02.758Z,1025.14
2018-02-24T08:00:03.148Z,1025.2
2018-02-24T08:05:03.578Z,1025.25
2018-02-24T08:10:03.066Z,1025.33
2018-02-24T08:15:03.856Z,1025.33
2018-02-24T08:20:03.379Z,1025.4
2018-02-24T08:25:02.940Z,1025.4
2018-02-24T08:30:03.449Z,1025.5
2018-02-24T08:35:02.915Z,1025.67
2018-02-24T08:40:03.375Z,1025.61
2018-02-24T08:45:02.866Z,1025.58
2018-02-24T08:50:03.515Z,1025.56
2018-02-24T08:55:02.931Z,1025.69
2018-02-24T09:00:03.379Z,1025.68
2018-02-24T09:05:02.928Z,1025.78
2018-02-24T09:10:03.445Z,1025.79
2018-02-24T09:15:02.907Z,1025.87
2018-02-24T09:20:03.368Z,1025.95
2018-02-24T09:25:02.787Z,1025.93
2018-02-24T09:30:03.223Z,1025.91
2018-02-24T09:35:02.724Z,1025.96
2018-02-24T09:40:03.350Z,1025.9
2018-02-24T09:45:02.807Z,1025.81
2018-02-24T09:50:03.213Z,1025.96
2018-02-24T09:55:03.660Z,1025.98
2018-02-24T10:00:03.146Z,1025.98
2018-02-24T10:05:02.729Z,1025.88
2018-02-24T10:10:03.228Z,1025.95
2018-02-24T10:15:02.929Z,1026.03
2018-02-24T10:20:03.576Z,1026.04
2018-02-24T10:25:03.023Z,1026.06
2018-02-24T10:30:03.508Z,1026.11
2018-02-24T10:35:02.949Z,1026.21
2018-02-24T10:40:03.424Z,1026.23
2018-02-24T10:45:02.847Z,1026.22
2018-02-24T10:50:03.314Z,1026.27
2018-02-24T10:55:02.863Z,1026.34
2018-02-24T11:00:03.329Z,1026.27
2018-02-24T11:05:02.864Z,1026.4
2018-02-24T11:10:03.318Z,1026.44
2018-02-24T11:15:02.739Z,1026.29
2018-02-24T11:20:03.208Z,1026.27
2018-02-24T11:25:02.715Z,1026.2
2018-02-24T11:30:03.202Z,1026.26
2018-02-24T11:35:02.783Z,1026.07
2018-02-24T11:40:03.384Z,1026
2018-02-24T11:45:02.804Z,1026.1
2018-02-24T11:50:03.371Z,1026.09
2018-02-24T11:55:02.790Z,1025.95
2018-02-24T12:00:03.197Z,1026.03
2018-02-24T12:05:03.668Z,1025.99
2018-02-24T12:10:03.225Z,1025.92
2018-02-24T12:15:03.663Z,1025.96
2018-02-24T12:20:03.188Z,1025.95
2018-02-24T12:25:03.542Z,1025.75
2018-02-24T12:30:02.955Z,1025.83
2018-02-24T12:35:03.471Z,1025.78
2018-02-24T12:40:02.918Z,1025.77
2018-02-24T12:45:03.300Z,1025.69
2018-02-24T12:50:02.692Z,1025.62
2018-02-24T12:55:03.111Z,1025.78
2018-02-24T13:00:03.563Z,1025.82
2018-02-24T13:05:03.041Z,1025.65
2018-02-24T13:10:03.596Z,1025.7
2018-02-24T13:15:03.034Z,1025.62
2018-02-24T13:20:03.552Z,1025.54
2018-02-24T13:25:02.952Z,1025.62
2018-02-24T13:30:03.423Z,1025.61
2018-02-24T13:35:02.899Z,1025.52
2018-02-24T13:40:03.450Z,1025.57
2018-02-24T13:45:02.880Z,1025.64
2018-02-24T13:50:03.321Z,1025.52
2018-02-24T13:55:02.708Z,1025.59
2018-02-24T14:00:03.126Z,1025.62
2018-02-24T14:05:03.555Z,1025.65
2018-02-24T14:10:03.045Z,1025.62
2018-02-24T14:15:03.415Z,1025.7
2018-02-24T14:20:02.852Z,1025.6
2018-02-24T14:25:03.355Z,1025.64
2018-02-24T14:30:03.223Z,1025.64
2018-02-24T14:35:02.834Z,1025.66
2018-02-24T14:40:03.379Z,1025.7
2018-02-24T14:45:02.786Z,1025.66
2018-02-24T14:50:03.347Z,1025.64
2018-02-24T14:55:02.764Z,1025.66
2018-02-24T15:00:03.250Z,1025.67
2018-02-24T15:05:02.707Z,1025.69
2018-02-24T15:10:03.311Z,1025.64
2018-02-24T15:15:02.802Z,1025.67
2018-02-24T15:20:03.327Z,1025.69
2018-02-24T15:25:02.725Z,1025.79
2018-02-24T15:30:03.238Z,1025.77
2018-02-24T15:35:02.753Z,1025.84
2018-02-24T15:40:03.256Z,1025.93
2018-02-24T15:45:03.707Z,1025.91
2018-02-24T15:50:03.168Z,1025.88
2018-02-24T15:55:03.608Z,1025.95
2018-02-24T16:00:03.024Z,1025.85
2018-02-24T16:05:03.537Z,1025.83
2018-02-24T16:10:03.114Z,1025.93
2018-02-24T16:15:03.575Z,1025.84
2018-02-24T16:20:03.237Z,1025.81
2018-02-24T16:25:02.798Z,1025.8
2018-02-24T16:30:03.310Z,1025.81
2018-02-24T16:35:02.852Z,1025.84
2018-02-24T16:40:03.392Z,1025.8
2018-02-24T16:45:02.839Z,1025.8
2018-02-24T16:50:03.379Z,1025.98
2018-02-24T16:55:02.846Z,1026.02
2018-02-24T17:00:03.343Z,1026.03
2018-02-24T17:05:02.930Z,1026.03
2018-02-24T17:10:03.513Z,1026.07
2018-02-24T17:15:02.977Z,1026.09
2018-02-24T17:20:03.618Z,1026.13
2018-02-24T17:25:03.045Z,1026.13
2018-02-24T17:30:03.499Z,1026.06
2018-02-24T17:35:02.953Z,1026.12
2018-02-24T17:40:03.489Z,1026.15
2018-02-24T17:45:02.973Z,1026.22
2018-02-24T17:50:03.855Z,1026.26
2018-02-24T17:55:03.320Z,1026.28
2018-02-24T18:00:02.820Z,1026.31
2018-02-24T18:05:03.284Z,1026.44
2018-02-24T18:10:02.848Z,1026.36
2018-02-24T18:15:03.316Z,1026.46
2018-02-24T18:20:02.824Z,1026.46
2018-02-24T18:25:03.310Z,1026.5
2018-02-24T18:30:02.743Z,1026.53
2018-02-24T18:35:03.202Z,1026.57
2018-02-24T18:40:02.729Z,1026.61
2018-02-24T18:45:03.247Z,1026.67
2018-02-24T18:50:03.652Z,1026.66
2018-02-24T18:55:03.177Z,1026.74
2018-02-24T19:00:03.647Z,1026.77
2018-02-24T19:05:03.101Z,1026.85
2018-02-24T19:10:03.640Z,1026.86
2018-02-24T19:15:03.051Z,1026.93
2018-02-24T19:20:03.538Z,1027.01
2018-02-24T19:25:03.205Z,1027.06
2018-02-24T19:30:03.693Z,1027
2018-02-24T19:35:03.216Z,1027.07
2018-02-24T19:40:03.696Z,1027.06
2018-02-24T19:45:03.148Z,1026.98
2018-02-24T19:50:04.952Z,1027.11
2018-02-24T19:55:03.445Z,1027.13
2018-02-24T20:00:02.866Z,1027.07
2018-02-24T20:05:02.876Z,1027.1
2018-02-24T20:10:03.509Z,1027.12
2018-02-24T20:15:02.917Z,1027.11
2018-02-24T20:20:03.521Z,1027.15
2018-02-24T20:25:03.033Z,1027.24
2018-02-24T20:30:03.465Z,1027.32
2018-02-24T20:35:03.004Z,1027.31
2018-02-24T20:40:03.561Z,1027.33
2018-02-24T20:45:03.008Z,1027.32
2018-02-24T20:50:03.499Z,1027.37
2018-02-24T20:55:02.969Z,1027.44
2018-02-24T21:00:03.549Z,1027.38
2018-02-24T21:05:03.064Z,1027.37
2018-02-24T21:10:03.694Z,1027.4
2018-02-24T21:15:03.103Z,1027.46
2018-02-24T21:20:03.623Z,1027.47
2018-02-24T21:25:03.104Z,1027.57
2018-02-24T21:30:03.637Z,1027.51
2018-02-24T21:35:03.492Z,1027.51
2018-02-24T21:40:03.175Z,1027.53
2018-02-24T21:45:03.663Z,1027.53
2018-02-24T21:50:03.202Z,1027.58
2018-02-24T21:55:03.673Z,1027.59
2018-02-24T22:00:03.606Z,1027.67
2018-02-24T22:05:03.175Z,1027.75
2018-02-24T22:10:03.656Z,1027.84
2018-02-24T22:15:03.045Z,1027.88
2018-02-24T22:20:03.589Z,1027.9
2018-02-24T22:25:02.975Z,1027.91
2018-02-24T22:30:03.563Z,1027.98
2018-02-24T22:35:02.992Z,1027.92
2018-02-24T22:40:03.462Z,1027.94
2018-02-24T22:45:02.863Z,1027.93
2018-02-24T22:50:03.350Z,1027.94
2018-02-24T22:55:02.822Z,1027.95
2018-02-24T23:00:03.293Z,1028.07
2018-02-24T23:05:02.811Z,1028.04
2018-02-24T23:10:03.266Z,1028.1
2018-02-24T23:15:02.708Z,1028.04
2018-02-24T23:20:03.192Z,1027.95
2018-02-24T23:25:03.597Z,1027.88
2018-02-24T23:30:03.130Z,1027.97
2018-02-24T23:35:03.581Z,1028.07
2018-02-24T23:40:03.149Z,1028.17
2018-02-24T23:45:03.621Z,1028.19
2018-02-24T23:50:03.056Z,1028.17
2018-02-24T23:55:03.501Z,1028.11
